Time;durP1;ratioP1;P1;durP2;ratioP2;P2;SDS_P1;SDS_P2;PMS_P1;PMS_P2;Temp;Humidity;BMP_temperature;BMP_pressure;BME280_temperature;BME280_humidity;BME280_pressure;Samples;Min_cycle;Max_cycle;Signal;HPM_P1;HPM_P2
2022/07/17 00:01:14;;;;;;;3.07;2.70;;;18.70;28.70;;;;;;5074212;28;20473;-70
2022/07/17 00:03:41;;;;;;;5.43;2.87;;;18.70;28.90;;;;;;5074137;28;20907;-71
2022/07/17 00:06:07;;;;;;;3.50;2.73;;;18.60;29.60;;;;;;5074211;28;20446;-71
2022/07/17 00:08:34;;;;;;;11.67;2.97;;;18.60;29.10;;;;;;5074268;28;20431;-71
2022/07/17 00:11:02;;;;;;;3.13;2.63;;;18.50;29.20;;;;;;5074774;28;20885;-70
2022/07/17 00:13:29;;;;;;;5.30;2.90;;;18.40;29.70;;;;;;5074156;28;20491;-71
2022/07/17 00:15:58;;;;;;;3.30;3.00;;;18.30;29.80;;;;;;5074113;28;21043;-70
2022/07/17 00:18:24;;;;;;;4.93;2.77;;;18.30;30.00;;;;;;5074305;28;20457;-73
2022/07/17 00:20:51;;;;;;;3.30;3.00;;;18.30;30.50;;;;;;5074591;28;20827;-71
2022/07/17 00:23:18;;;;;;;3.27;2.80;;;18.20;30.80;;;;;;5074283;28;21034;-70
2022/07/17 00:25:46;;;;;;;3.10;2.90;;;18.20;31.60;;;;;;5074970;28;20504;-70
2022/07/17 00:28:13;;;;;;;3.60;3.30;;;18.00;31.90;;;;;;5076175;28;20824;-70
2022/07/17 00:30:40;;;;;;;3.07;2.80;;;18.00;32.30;;;;;;5078125;28;20936;-70
2022/07/17 00:33:08;;;;;;;2.90;2.60;;;17.90;33.00;;;;;;5078424;28;20794;-70
2022/07/17 00:35:35;;;;;;;3.30;3.10;;;17.80;33.40;;;;;;5077691;28;20458;-71
2022/07/17 00:38:02;;;;;;;3.53;3.20;;;17.80;34.00;;;;;;5077639;28;20467;-71
2022/07/17 00:40:29;;;;;;;7.13;3.37;;;17.70;34.40;;;;;;5081927;28;21045;-71
2022/07/17 00:42:55;;;;;;;5.97;3.50;;;17.70;34.90;;;;;;5075561;28;20958;-71
2022/07/17 00:45:24;;;;;;;3.77;3.00;;;17.70;35.30;;;;;;5073800;28;20504;-70
2022/07/17 00:47:55;;;;;;;3.57;3.20;;;17.60;35.70;;;;;;5073290;28;20430;-70
2022/07/17 00:50:24;;;;;;;4.60;3.20;;;17.60;36.60;;;;;;5073562;28;20452;-71
2022/07/17 00:52:51;;;;;;;3.87;3.37;;;17.40;36.80;;;;;;5073554;28;20903;-71
2022/07/17 00:55:19;;;;;;;3.90;3.60;;;17.40;36.40;;;;;;5073578;28;20502;-72
2022/07/17 00:57:47;;;;;;;4.17;3.60;;;17.30;36.30;;;;;;5057874;28;20456;-71
2022/07/17 01:00:16;;;;;;;4.20;3.27;;;17.30;36.80;;;;;;5069886;28;20445;-71
2022/07/17 01:02:46;;;;;;;3.43;3.13;;;17.20;37.50;;;;;;5092719;28;20444;-71
2022/07/17 01:05:14;;;;;;;3.40;3.10;;;17.20;37.60;;;;;;5091781;28;20474;-71
2022/07/17 01:07:42;;;;;;;4.13;3.73;;;17.10;37.80;;;;;;5089492;28;20502;-72
2022/07/17 01:10:10;;;;;;;4.50;3.73;;;17.10;38.60;;;;;;5085048;28;20430;-71
2022/07/17 01:12:37;;;;;;;7.43;3.67;;;17.00;38.60;;;;;;5076556;28;20499;-70
2022/07/17 01:15:06;;;;;;;3.90;3.60;;;17.00;38.70;;;;;;5075850;28;20475;-72
2022/07/17 01:17:32;;;;;;;8.73;3.80;;;17.00;38.90;;;;;;5075283;28;20486;-71
2022/07/17 01:19:59;;;;;;;6.63;3.23;;;16.90;39.30;;;;;;5076250;28;20431;-72
2022/07/17 01:22:27;;;;;;;4.30;3.40;;;16.80;39.80;;;;;;5079623;28;20487;-72
2022/07/17 01:24:54;;;;;;;3.60;3.40;;;16.80;40.00;;;;;;5081214;28;20563;-73
2022/07/17 01:27:21;;;;;;;4.67;4.27;;;16.80;39.70;;;;;;5078458;28;20911;-72
2022/07/17 01:29:48;;;;;;;4.17;3.87;;;16.80;40.90;;;;;;5076374;28;20483;-72
2022/07/17 01:32:15;;;;;;;4.10;3.80;;;16.70;40.80;;;;;;5077655;28;20422;-71
2022/07/17 01:34:42;;;;;;;4.17;3.87;;;16.70;41.20;;;;;;5079614;28;21046;-72
2022/07/17 01:37:09;;;;;;;5.33;4.83;;;16.60;42.10;;;;;;5084610;28;20462;-72
2022/07/17 01:39:55;;;;;;;8.70;4.30;;;16.50;42.20;;;;;;5086660;28;20427;-72
2022/07/17 01:42:23;;;;;;;4.47;4.07;;;16.40;43.80;;;;;;5093866;28;20499;-72
2022/07/17 01:44:51;;;;;;;4.97;4.57;;;16.30;44.90;;;;;;5096109;28;20529;-71
2022/07/17 01:47:18;;;;;;;5.27;4.20;;;16.20;45.30;;;;;;5095630;28;20487;-72
2022/07/17 01:49:46;;;;;;;5.00;4.27;;;16.10;45.20;;;;;;5095431;28;20415;-71
2022/07/17 01:52:13;;;;;;;7.57;4.63;;;16.00;45.10;;;;;;5094186;28;20452;-71
2022/07/17 01:54:42;;;;;;;5.47;4.07;;;16.00;45.70;;;;;;5083521;28;20453;-71
2022/07/17 01:57:10;;;;;;;5.60;4.40;;;16.00;46.00;;;;;;5076842;28;20422;-71
2022/07/17 01:59:37;;;;;;;4.83;4.33;;;16.00;46.70;;;;;;5076334;28;20460;-71
2022/07/17 02:02:05;;;;;;;4.53;4.10;;;15.90;46.90;;;;;;5073544;28;20488;-72
2022/07/17 02:04:33;;;;;;;5.43;4.83;;;15.80;48.30;;;;;;5073217;28;20476;-71
2022/07/17 02:07:00;;;;;;;5.57;5.07;;;15.80;48.30;;;;;;5073305;28;21211;-72
2022/07/17 02:09:26;;;;;;;5.23;4.30;;;15.70;49.00;;;;;;5073434;28;20930;-72
2022/07/17 02:11:55;;;;;;;5.80;5.30;;;15.70;49.40;;;;;;5074674;28;20423;-73
2022/07/17 02:14:22;;;;;;;5.90;5.00;;;15.60;49.70;;;;;;5075942;28;21073;-72
2022/07/17 02:16:49;;;;;;;6.20;5.10;;;15.60;50.00;;;;;;5076597;28;20925;-72
2022/07/17 02:19:16;;;;;;;4.50;4.10;;;15.50;50.40;;;;;;5076423;28;20890;-72
2022/07/17 02:21:42;;;;;;;8.20;4.70;;;15.40;51.00;;;;;;5075745;28;20491;-72
2022/07/17 02:24:09;;;;;;;5.23;4.83;;;15.30;51.60;;;;;;5079729;28;20534;-73
2022/07/17 02:26:36;;;;;;;6.30;5.70;;;15.40;51.90;;;;;;5081812;28;20454;-72
2022/07/17 02:29:04;;;;;;;7.37;5.87;;;15.30;52.50;;;;;;5088187;28;20462;-73
2022/07/17 02:31:31;;;;;;;6.10;5.60;;;15.30;52.80;;;;;;5085291;28;20443;-72
2022/07/17 02:33:58;;;;;;;7.67;5.97;;;15.30;53.10;;;;;;5081510;28;20522;-73
2022/07/17 02:36:25;;;;;;;8.07;6.57;;;15.20;54.10;;;;;;5083507;28;20478;-72
2022/07/17 02:38:53;;;;;;;9.53;6.50;;;15.20;54.10;;;;;;5084315;28;20430;-73
2022/07/17 02:41:20;;;;;;;6.97;6.27;;;15.20;54.10;;;;;;5084201;28;20453;-72
2022/07/17 02:43:46;;;;;;;6.43;5.67;;;15.10;54.00;;;;;;5091477;28;20433;-73
2022/07/17 02:46:15;;;;;;;8.03;5.63;;;15.10;54.00;;;;;;5092760;28;20542;-72
2022/07/17 02:48:42;;;;;;;6.13;5.60;;;15.10;54.00;;;;;;5084734;28;20569;-73
2022/07/17 02:51:09;;;;;;;6.23;5.67;;;15.00;53.90;;;;;;5081371;28;20978;-72
2022/07/17 02:53:36;;;;;;;6.72;5.88;;;15.00;53.90;;;;;;5080033;28;20426;-72
2022/07/17 02:56:02;;;;;;;6.20;5.70;;;14.90;54.10;;;;;;5079352;28;20324;-73
2022/07/17 02:58:29;;;;;;;6.33;5.47;;;14.90;54.80;;;;;;5080696;28;20221;-73
2022/07/17 03:00:56;;;;;;;8.97;5.00;;;14.80;55.70;;;;;;5080465;28;20537;-72
2022/07/17 03:03:25;;;;;;;5.30;4.88;;;14.70;56.50;;;;;;5080037;28;20426;-71
2022/07/17 03:05:52;;;;;;;6.13;5.60;;;14.70;57.10;;;;;;5079050;28;20651;-73
2022/07/17 03:08:18;;;;;;;5.30;4.90;;;14.60;57.70;;;;;;5080589;28;20462;-72
2022/07/17 03:10:45;;;;;;;6.07;5.07;;;14.60;57.80;;;;;;5078782;28;20206;-72
2022/07/17 03:13:12;;;;;;;5.87;5.37;;;14.60;57.70;;;;;;5078996;28;20452;-72
2022/07/17 03:15:39;;;;;;;5.90;5.50;;;14.50;58.60;;;;;;5078559;28;20486;-72
2022/07/17 03:18:06;;;;;;;6.25;5.65;;;14.40;59.30;;;;;;5078961;28;20422;-72
2022/07/17 03:20:34;;;;;;;5.30;4.80;;;14.30;59.80;;;;;;5079655;28;20217;-72
2022/07/17 03:23:01;;;;;;;5.43;4.93;;;14.30;60.30;;;;;;5082926;28;20664;-72
2022/07/17 03:25:28;;;;;;;6.90;5.13;;;14.20;60.40;;;;;;5078589;28;20461;-70
2022/07/17 03:27:55;;;;;;;5.70;4.90;;;14.20;60.80;;;;;;5079273;28;20216;-71
2022/07/17 03:30:22;;;;;;;5.43;4.93;;;14.20;61.20;;;;;;5078876;28;20666;-72
2022/07/17 03:32:49;;;;;;;6.63;6.03;;;14.30;61.30;;;;;;5082130;28;20205;-73
2022/07/17 03:35:16;;;;;;;6.28;5.70;;;14.20;61.40;;;;;;5080844;28;20221;-72
2022/07/17 03:37:45;;;;;;;6.05;5.45;;;14.20;61.00;;;;;;5078725;28;20210;-73
2022/07/17 03:40:12;;;;;;;5.70;5.18;;;14.20;61.60;;;;;;5079433;28;20696;-71
2022/07/17 03:42:39;;;;;;;6.15;5.55;;;14.20;61.40;;;;;;5075459;28;20222;-72
2022/07/17 03:45:07;;;;;;;6.68;5.40;;;14.20;61.40;;;;;;5084447;28;20229;-73
2022/07/17 03:47:34;;;;;;;6.18;5.60;;;14.20;62.00;;;;;;5080023;28;20279;-71
2022/07/17 03:50:02;;;;;;;6.67;6.07;;;14.20;62.50;;;;;;5075063;28;20553;-71
2022/07/17 03:52:28;;;;;;;6.82;6.25;;;14.20;62.50;;;;;;5075205;28;20452;-72
2022/07/17 03:54:57;;;;;;;6.88;6.25;;;14.10;62.40;;;;;;5081488;28;20221;-72
2022/07/17 03:57:23;;;;;;;6.87;6.10;;;14.10;62.40;;;;;;5089219;28;20221;-72
2022/07/17 03:59:51;;;;;;;6.43;5.93;;;14.10;62.40;;;;;;5087785;28;20460;-72
2022/07/17 04:02:17;;;;;;;8.35;5.78;;;14.10;62.40;;;;;;5095084;28;20218;-73
2022/07/17 04:04:44;;;;;;;6.20;5.70;;;14.10;62.40;;;;;;5078402;28;20278;-72
2022/07/17 04:07:26;;;;;;;5.85;5.35;;;14.10;62.40;;;;;;5076171;28;20209;-71
2022/07/17 04:09:54;;;;;;;6.03;5.53;;;14.10;62.40;;;;;;5076771;28;20196;-74
2022/07/17 04:12:23;;;;;;;6.67;6.07;;;14.10;62.40;;;;;;5076955;28;20214;-73
2022/07/17 04:14:50;;;;;;;5.82;5.32;;;14.10;62.40;;;;;;5076326;28;20468;-73
2022/07/17 04:17:17;;;;;;;6.72;5.95;;;14.10;62.40;;;;;;5075901;28;20233;-73
2022/07/17 04:19:44;;;;;;;8.57;6.03;;;14.10;62.40;;;;;;5078188;28;20304;-74
2022/07/17 04:22:11;;;;;;;6.05;5.65;;;14.10;62.40;;;;;;5076190;28;21174;-72
2022/07/17 04:24:38;;;;;;;9.52;6.05;;;14.10;60.90;;;;;;5075905;28;20316;-72
2022/07/17 04:27:05;;;;;;;6.30;5.75;;;14.20;60.80;;;;;;5074755;28;20202;-72
2022/07/17 04:29:33;;;;;;;6.03;5.53;;;14.20;60.10;;;;;;5075324;28;20257;-73
2022/07/17 04:32:00;;;;;;;7.88;6.05;;;14.20;59.30;;;;;;5075802;28;20206;-72
2022/07/17 04:34:27;;;;;;;5.82;5.32;;;14.30;59.00;;;;;;5077888;28;20316;-72
2022/07/17 04:36:54;;;;;;;5.97;5.45;;;14.40;58.40;;;;;;5076116;28;20212;-72
2022/07/17 04:39:23;;;;;;;5.30;4.80;;;14.50;57.60;;;;;;5075400;28;20665;-72
2022/07/17 04:41:50;;;;;;;5.03;4.63;;;14.60;56.70;;;;;;5076420;28;20487;-73
2022/07/17 04:44:16;;;;;;;6.25;5.72;;;14.70;55.80;;;;;;5077685;28;20446;-73
2022/07/17 04:46:45;;;;;;;5.95;5.45;;;14.70;54.50;;;;;;5074790;28;20210;-71
2022/07/17 04:49:12;;;;;;;6.97;4.60;;;14.70;54.40;;;;;;5074477;28;20697;-71
2022/07/17 04:51:39;;;;;;;5.38;4.97;;;14.80;53.70;;;;;;5086733;28;20498;-74
2022/07/17 04:54:06;;;;;;;5.37;4.57;;;14.90;53.80;;;;;;5093400;28;20230;-71
2022/07/17 04:56:33;;;;;;;5.63;5.07;;;15.00;53.20;;;;;;5090843;28;20440;-70
2022/07/17 04:59:00;;;;;;;5.87;5.10;;;15.10;51.80;;;;;;5078514;28;20429;-73
2022/07/17 05:01:27;;;;;;;5.33;4.83;;;15.20;50.80;;;;;;5076822;28;20546;-74
2022/07/17 05:03:55;;;;;;;4.47;4.17;;;15.40;51.00;;;;;;5076189;28;20433;-71
2022/07/17 05:06:22;;;;;;;4.80;4.37;;;15.70;49.00;;;;;;5075301;28;20434;-71
2022/07/17 05:08:49;;;;;;;6.10;5.70;;;16.10;47.70;;;;;;5075212;28;20563;-73
2022/07/17 05:11:15;;;;;;;4.10;3.80;;;16.70;45.80;;;;;;5076126;28;20866;-73
2022/07/17 05:13:42;;;;;;;3.70;3.40;;;17.30;42.20;;;;;;5076200;28;20445;-74
2022/07/17 05:16:09;;;;;;;6.07;3.60;;;17.90;39.50;;;;;;5075029;28;20473;-73
2022/07/17 05:18:36;;;;;;;3.77;3.30;;;18.40;37.30;;;;;;5075026;28;20423;-73
2022/07/17 05:21:04;;;;;;;3.57;3.27;;;18.50;37.40;;;;;;5076024;28;20423;-73
2022/07/17 05:23:31;;;;;;;3.40;3.10;;;18.90;36.30;;;;;;5073918;28;20483;-71
2022/07/17 05:25:58;;;;;;;6.40;3.20;;;19.40;34.20;;;;;;5072835;28;20446;-72
2022/07/17 05:28:25;;;;;;;4.20;2.83;;;19.50;33.20;;;;;;5075299;28;20427;-73
2022/07/17 05:30:52;;;;;;;4.50;2.83;;;19.30;33.10;;;;;;5075376;28;20459;-72
2022/07/17 05:33:18;;;;;;;4.03;3.20;;;19.90;32.30;;;;;;5074866;28;20515;-72
2022/07/17 05:35:45;;;;;;;3.03;2.73;;;20.30;31.00;;;;;;5074874;28;20469;-73
2022/07/17 05:38:13;;;;;;;2.50;2.40;;;20.30;30.70;;;;;;5074338;28;20456;-71
2022/07/17 05:40:40;;;;;;;2.57;2.37;;;20.80;29.50;;;;;;5073457;28;20821;-73
2022/07/17 05:43:07;;;;;;;3.70;2.77;;;20.20;30.50;;;;;;5075022;28;20464;-72
2022/07/17 05:45:34;;;;;;;2.80;2.60;;;20.60;29.30;;;;;;5075345;28;20853;-72
2022/07/17 05:48:01;;;;;;;2.83;2.57;;;20.10;29.60;;;;;;5073749;28;20951;-71
2022/07/17 05:50:28;;;;;;;2.77;2.30;;;20.80;29.50;;;;;;5074248;28;20447;-73
2022/07/17 05:52:54;;;;;;;3.47;2.50;;;21.00;28.20;;;;;;5075790;28;20444;-73
2022/07/17 05:55:23;;;;;;;3.53;2.50;;;19.50;30.80;;;;;;5075708;28;20480;-70
2022/07/17 05:57:50;;;;;;;2.53;2.00;;;19.60;29.70;;;;;;5075948;28;20951;-72
2022/07/17 06:00:18;;;;;;;3.27;2.17;;;20.10;29.00;;;;;;5075522;28;20435;-73
2022/07/17 06:02:44;;;;;;;6.33;2.20;;;20.70;28.70;;;;;;5075695;28;20520;-73
2022/07/17 06:05:11;;;;;;;2.20;2.00;;;19.70;28.70;;;;;;5074454;28;20480;-72
2022/07/17 06:07:38;;;;;;;2.57;2.37;;;19.60;29.60;;;;;;5075496;28;20433;-73
2022/07/17 06:10:07;;;;;;;6.03;2.13;;;19.70;29.60;;;;;;5081757;28;20427;-72
2022/07/17 06:12:35;;;;;;;2.60;2.33;;;20.00;28.90;;;;;;5084619;28;20444;-72
2022/07/17 06:15:02;;;;;;;4.20;2.27;;;19.30;30.20;;;;;;5091679;28;20446;-72
2022/07/17 06:17:29;;;;;;;3.23;2.30;;;19.90;29.70;;;;;;5096035;28;20436;-72
2022/07/17 06:19:56;;;;;;;2.70;2.20;;;20.30;29.10;;;;;;5095812;28;20414;-72
2022/07/17 06:22:23;;;;;;;3.00;2.10;;;20.80;29.00;;;;;;5091905;28;20494;-72
2022/07/17 06:24:50;;;;;;;2.87;2.13;;;20.30;29.10;;;;;;5092796;28;20514;-73
2022/07/17 06:27:17;;;;;;;3.00;2.50;;;20.70;29.20;;;;;;5083908;28;20463;-72
2022/07/17 06:29:46;;;;;;;3.37;2.40;;;20.90;29.50;;;;;;5077536;28;20430;-73
2022/07/17 06:32:13;;;;;;;3.17;2.10;;;21.30;28.30;;;;;;5079120;28;20548;-72
2022/07/17 06:34:40;;;;;;;2.20;2.00;;;21.40;27.50;;;;;;5078545;28;20595;-72
2022/07/17 06:37:06;;;;;;;6.20;2.50;;;21.30;27.40;;;;;;5079600;28;20911;-71
2022/07/17 06:39:33;;;;;;;3.13;2.17;;;21.40;27.60;;;;;;5077986;28;20488;-72
2022/07/17 06:42:01;;;;;;;4.40;2.20;;;21.30;27.70;;;;;;5073690;28;20431;-69
2022/07/17 06:44:28;;;;;;;4.73;2.10;;;21.80;27.70;;;;;;5072986;28;20530;-72
2022/07/17 06:46:56;;;;;;;4.57;2.10;;;21.60;27.10;;;;;;5074144;28;20427;-71
2022/07/17 06:49:23;;;;;;;2.03;1.83;;;21.00;28.40;;;;;;5075576;28;20443;-72
2022/07/17 06:51:50;;;;;;;3.23;1.97;;;20.70;28.70;;;;;;5073818;28;20431;-72
2022/07/17 06:54:17;;;;;;;2.40;2.03;;;21.30;27.50;;;;;;5072220;28;20614;-70
2022/07/17 06:56:46;;;;;;;4.43;2.23;;;21.00;28.10;;;;;;5072240;28;20538;-70
2022/07/17 06:59:13;;;;;;;9.53;2.10;;;21.00;28.00;;;;;;5072407;28;20448;-72
2022/07/17 07:01:40;;;;;;;3.07;2.07;;;21.40;27.60;;;;;;5072187;28;20518;-70
2022/07/17 07:04:08;;;;;;;4.37;2.07;;;21.60;26.90;;;;;;5071988;28;20572;-71
2022/07/17 07:06:35;;;;;;;2.20;2.00;;;21.40;27.20;;;;;;5072425;28;20543;-71
2022/07/17 07:09:02;;;;;;;2.30;2.10;;;20.90;28.00;;;;;;5072091;28;20443;-71
2022/07/17 07:11:29;;;;;;;5.47;2.17;;;20.40;29.20;;;;;;5075243;28;20451;-72
2022/07/17 07:13:56;;;;;;;2.20;1.77;;;20.40;29.20;;;;;;5075953;28;20474;-70
2022/07/17 07:16:23;;;;;;;2.00;1.83;;;20.30;29.10;;;;;;5076014;28;20430;-72
2022/07/17 07:18:50;;;;;;;4.47;2.03;;;20.20;29.00;;;;;;5076777;28;20463;-71
2022/07/17 07:21:18;;;;;;;3.03;2.03;;;20.30;29.10;;;;;;5076556;28;20529;-72
2022/07/17 07:23:45;;;;;;;2.80;1.83;;;20.20;29.00;;;;;;5078155;28;20578;-72
2022/07/17 07:26:12;;;;;;;3.27;2.10;;;20.20;29.00;;;;;;5078901;28;20452;-71
2022/07/17 07:28:39;;;;;;;3.30;2.10;;;20.00;28.90;;;;;;5078120;28;20447;-72
2022/07/17 07:31:06;;;;;;;4.30;2.27;;;20.00;28.90;;;;;;5071446;28;20423;-72
2022/07/17 07:33:33;;;;;;;2.97;1.70;;;20.10;29.00;;;;;;5080157;28;20472;-70
2022/07/17 07:36:00;;;;;;;4.80;3.47;;;20.10;29.00;;;;;;5092894;28;20468;-71
2022/07/17 07:38:28;;;;;;;2.30;2.00;;;20.40;29.20;;;;;;5081438;28;20466;-71
2022/07/17 07:40:55;;;;;;;5.20;1.90;;;20.50;29.20;;;;;;5082866;28;20451;-71
2022/07/17 07:43:23;;;;;;;2.33;2.13;;;20.60;29.30;;;;;;5086347;28;20546;-72
2022/07/17 07:45:50;;;;;;;2.73;2.10;;;20.60;28.70;;;;;;5076468;28;20483;-70
2022/07/17 07:48:17;;;;;;;2.03;1.93;;;20.40;29.20;;;;;;5075875;28;20418;-71
2022/07/17 07:50:44;;;;;;;2.47;1.93;;;20.50;29.20;;;;;;5075659;28;20467;-71
2022/07/17 07:53:11;;;;;;;2.07;1.80;;;20.70;28.80;;;;;;5076983;28;20425;-72
2022/07/17 07:55:39;;;;;;;3.70;2.10;;;20.70;28.60;;;;;;5082127;28;20525;-73
2022/07/17 07:58:07;;;;;;;3.77;2.10;;;20.70;28.10;;;;;;5081844;28;20460;-74
2022/07/17 08:00:35;;;;;;;10.43;1.87;;;20.90;28.60;;;;;;5078588;28;20444;-72
2022/07/17 08:03:02;;;;;;;5.03;2.17;;;21.10;27.80;;;;;;5079925;28;20914;-72
2022/07/17 08:05:29;;;;;;;3.80;1.80;;;21.20;27.60;;;;;;5077488;28;20443;-72
2022/07/17 08:07:56;;;;;;;2.00;1.90;;;21.20;27.70;;;;;;5075623;28;20516;-73
2022/07/17 08:10:23;;;;;;;2.40;2.03;;;21.30;27.70;;;;;;5075070;28;20430;-71
2022/07/17 08:12:51;;;;;;;2.17;2.00;;;21.10;27.40;;;;;;5075050;28;20419;-72
2022/07/17 08:15:19;;;;;;;9.30;2.10;;;21.20;27.80;;;;;;5075197;28;20996;-74
2022/07/17 08:17:48;;;;;;;2.37;1.80;;;21.40;27.60;;;;;;5076761;28;20427;-73
2022/07/17 08:20:15;;;;;;;3.57;1.50;;;21.60;27.20;;;;;;5076231;28;20426;-73
2022/07/17 08:22:43;;;;;;;4.73;2.33;;;21.60;26.70;;;;;;5075987;28;20427;-76
2022/07/17 08:25:10;;;;;;;4.03;2.20;;;21.80;26.80;;;;;;5076710;28;20455;-75
2022/07/17 08:27:38;;;;;;;2.93;1.93;;;21.80;26.70;;;;;;5077030;28;20430;-73
2022/07/17 08:30:08;;;;;;;2.00;1.90;;;22.00;26.50;;;;;;5076787;28;20437;-71
2022/07/17 08:32:35;;;;;;;2.80;1.80;;;22.00;26.20;;;;;;5076520;28;20533;-73
2022/07/17 08:35:02;;;;;;;5.13;2.33;;;22.20;26.40;;;;;;5076635;28;20866;-73
2022/07/17 08:37:29;;;;;;;3.10;1.90;;;22.20;25.80;;;;;;5075313;28;20464;-72
2022/07/17 08:39:57;;;;;;;1.60;1.50;;;22.20;25.70;;;;;;5075026;28;20467;-71
2022/07/17 08:42:31;;;;;;;3.17;2.20;;;22.20;25.60;;;;;;5074643;28;20434;-73
2022/07/17 08:44:58;;;;;;;3.03;2.00;;;22.20;26.00;;;;;;5075087;28;20473;-74
2022/07/17 08:47:27;;;;;;;3.50;2.07;;;22.60;25.30;;;;;;5074701;28;20541;-74
2022/07/17 08:49:54;;;;;;;2.00;1.80;;;22.90;24.70;;;;;;5074845;28;20798;-71
2022/07/17 08:52:21;;;;;;;2.70;1.80;;;22.80;24.70;;;;;;5074643;28;20770;-73
2022/07/17 08:54:48;;;;;;;2.30;2.10;;;22.90;24.40;;;;;;5075688;28;20840;-71
2022/07/17 08:57:15;;;;;;;2.20;1.80;;;23.00;24.70;;;;;;5076007;28;20458;-72
2022/07/17 08:59:44;;;;;;;2.10;1.90;;;23.10;24.30;;;;;;5077650;28;20497;-72
2022/07/17 09:02:11;;;;;;;4.20;1.70;;;23.20;24.60;;;;;;5086630;28;20430;-74
2022/07/17 09:04:40;;;;;;;1.70;1.60;;;23.40;23.60;;;;;;5085183;28;20472;-74
2022/07/17 09:07:07;;;;;;;2.80;2.00;;;23.40;23.10;;;;;;5088683;28;20420;-74
2022/07/17 09:09:34;;;;;;;2.07;1.77;;;23.40;23.10;;;;;;5090189;28;20451;-74
2022/07/17 09:12:02;;;;;;;1.50;1.40;;;23.70;23.40;;;;;;5087720;28;20423;-75
2022/07/17 09:14:38;;;;;;;2.70;2.03;;;23.90;23.50;;;;;;5075665;28;20881;-72
2022/07/17 09:17:06;;;;;;;1.80;1.70;;;23.80;23.30;;;;;;5075196;28;20873;-74
2022/07/17 09:19:35;;;;;;;9.40;2.03;;;23.80;23.40;;;;;;5075122;28;20431;-74
2022/07/17 09:22:11;;;;;;;7.73;1.50;;;23.90;23.50;;;;;;5080257;28;20426;-74
2022/07/17 09:24:46;;;;;;;1.87;1.60;;;24.20;23.20;;;;;;5087508;28;20490;-74
2022/07/17 09:27:17;;;;;;;1.80;1.70;;;24.30;22.20;;;;;;5080009;28;20961;-74
2022/07/17 09:29:52;;;;;;;3.33;1.63;;;24.40;22.50;;;;;;5074636;28;20471;-73
2022/07/17 09:32:19;;;;;;;2.70;1.97;;;24.30;21.70;;;;;;5073332;28;20458;-72
2022/07/17 09:34:47;;;;;;;3.53;1.90;;;24.50;21.70;;;;;;5073383;28;20950;-71
2022/07/17 09:37:15;;;;;;;1.57;1.47;;;24.80;20.70;;;;;;5072811;28;20466;-72
2022/07/17 09:39:42;;;;;;;2.33;1.83;;;24.80;21.10;;;;;;5073206;28;20444;-70
2022/07/17 09:42:10;;;;;;;2.87;2.40;;;24.90;21.10;;;;;;5072984;28;20411;-72
2022/07/17 09:44:38;;;;;;;1.67;1.57;;;24.90;20.20;;;;;;5073329;28;20487;-70
2022/07/17 09:47:05;;;;;;;3.70;1.83;;;24.70;20.30;;;;;;5073349;28;20467;-70
2022/07/17 09:49:33;;;;;;;3.40;1.90;;;24.80;20.80;;;;;;5072962;28;20423;-70
2022/07/17 09:52:02;;;;;;;2.50;1.93;;;24.80;20.90;;;;;;5073415;28;20471;-70
2022/07/17 09:54:32;;;;;;;1.80;1.63;;;25.10;21.00;;;;;;5072897;28;20899;-70
2022/07/17 09:57:00;;;;;;;1.80;1.70;;;25.30;20.20;;;;;;5073106;28;20425;-71
2022/07/17 09:59:31;;;;;;;6.93;1.77;;;25.50;19.20;;;;;;5072680;28;20835;-70
2022/07/17 10:02:00;;;;;;;2.00;1.90;;;25.50;19.00;;;;;;5072439;28;20427;-70
2022/07/17 10:04:28;;;;;;;2.07;1.77;;;25.30;18.60;;;;;;5072786;28;20498;-70
2022/07/17 10:06:55;;;;;;;2.90;1.87;;;25.30;18.70;;;;;;5073808;28;20551;-71
2022/07/17 10:09:23;;;;;;;1.80;1.70;;;25.20;18.10;;;;;;5069753;28;20939;-71
2022/07/17 10:11:52;;;;;;;1.70;1.60;;;25.30;18.20;;;;;;5063854;28;20426;-70
2022/07/17 10:14:19;;;;;;;3.00;1.90;;;25.30;17.80;;;;;;5060368;28;20782;-71
2022/07/17 10:16:46;;;;;;;2.10;1.83;;;25.50;18.00;;;;;;5058495;28;20844;-71
2022/07/17 10:19:18;;;;;;;1.73;1.40;;;25.50;17.20;;;;;;5073858;28;20956;-71
2022/07/17 10:21:54;;;;;;;2.67;1.60;;;25.50;18.00;;;;;;5074331;28;20466;-71
2022/07/17 10:24:21;;;;;;;3.80;1.63;;;25.50;17.30;;;;;;5074732;28;20459;-71
2022/07/17 10:26:49;;;;;;;2.67;1.77;;;25.60;17.70;;;;;;5075283;28;20456;-71
2022/07/17 10:29:30;;;;;;;2.20;1.60;;;25.60;17.30;;;;;;5074502;28;20497;-70
2022/07/17 10:31:58;;;;;;;1.90;1.50;;;25.70;16.10;;;;;;5057960;28;20806;-70
2022/07/17 10:34:41;;;;;;;2.10;1.30;;;26.00;16.30;;;;;;5074593;28;20476;-71
2022/07/17 10:37:16;;;;;;;1.73;1.63;;;26.50;16.60;;;;;;5074493;28;20797;-71
2022/07/17 10:39:54;;;;;;;1.83;1.70;;;26.10;14.80;;;;;;5057667;28;20430;-70
2022/07/17 10:42:39;;;;;;;2.63;1.83;;;26.30;14.60;;;;;;5068401;28;20430;-70
2022/07/17 10:45:12;;;;;;;1.53;1.43;;;26.00;14.70;;;;;;5074485;28;20470;-71
2022/07/17 10:47:51;;;;;;;1.83;1.33;;;26.30;14.40;;;;;;5078959;28;20517;-71
2022/07/17 10:50:19;;;;;;;1.77;1.50;;;26.40;13.30;;;;;;5079022;28;20430;-71
2022/07/17 10:52:58;;;;;;;2.43;1.70;;;26.60;13.40;;;;;;5072804;28;20455;-71
2022/07/17 10:55:25;;;;;;;2.50;1.70;;;26.80;14.50;;;;;;5074922;28;20462;-70
2022/07/17 10:57:52;;;;;;;4.23;1.60;;;26.80;15.00;;;;;;5080900;28;20492;-72
2022/07/17 11:00:20;;;;;;;3.17;1.70;;;26.80;14.20;;;;;;5077955;28;20802;-71
2022/07/17 11:02:47;;;;;;;4.10;1.67;;;27.10;14.20;;;;;;5073739;28;20454;-70
2022/07/17 11:05:16;;;;;;;1.50;1.40;;;27.30;13.90;;;;;;5074966;28;20479;-70
2022/07/17 11:07:56;;;;;;;1.50;1.40;;;27.30;13.50;;;;;;5076715;28;20427;-71
2022/07/17 11:10:26;;;;;;;1.30;1.20;;;27.00;13.30;;;;;;5066191;28;20464;-71
2022/07/17 11:12:53;;;;;;;1.70;1.40;;;26.80;12.60;;;;;;5076898;28;20455;-70
2022/07/17 11:15:22;;;;;;;1.47;1.37;;;27.10;12.50;;;;;;5075407;28;20475;-72
2022/07/17 11:17:50;;;;;;;1.33;1.23;;;27.20;11.90;;;;;;5069921;28;20474;-72
2022/07/17 11:20:17;;;;;;;4.30;1.40;;;27.10;12.50;;;;;;5065227;28;20553;-70
2022/07/17 11:22:45;;;;;;;3.07;1.40;;;27.20;11.50;;;;;;5089646;28;20429;-72
2022/07/17 11:25:12;;;;;;;2.50;1.60;;;27.10;12.00;;;;;;5095374;28;20477;-72
2022/07/17 11:27:39;;;;;;;1.73;1.60;;;27.10;11.40;;;;;;5071888;28;20427;-71
2022/07/17 11:30:15;;;;;;;2.03;1.40;;;27.30;12.70;;;;;;5076109;28;20466;-73
2022/07/17 11:32:43;;;;;;;1.83;1.53;;;27.70;12.10;;;;;;5066706;28;20505;-71
2022/07/17 11:35:19;;;;;;;1.50;1.40;;;28.10;11.70;;;;;;5073144;28;20842;-71
2022/07/17 11:37:46;;;;;;;3.03;1.40;;;27.90;11.00;;;;;;5079087;28;20524;-71
2022/07/17 11:40:13;;;;;;;7.10;1.83;;;27.80;11.50;;;;;;5076896;28;20519;-70
2022/07/17 11:42:40;;;;;;;1.67;1.57;;;27.40;11.70;;;;;;5084862;28;20451;-71
2022/07/17 11:45:08;;;;;;;1.63;1.37;;;27.50;11.80;;;;;;5082588;28;21200;-70
2022/07/17 11:47:36;;;;;;;2.93;1.40;;;27.60;11.60;;;;;;5078260;28;20449;-70
2022/07/17 11:50:10;;;;;;;1.37;1.30;;;27.50;10.10;;;;;;5063606;28;20573;-73
2022/07/17 11:52:48;;;;;;;1.50;1.40;;;27.40;9.70;;;;;;5078005;28;20442;-73
2022/07/17 11:55:15;;;;;;;2.50;1.73;;;27.80;9.80;;;;;;5065716;28;20470;-72
2022/07/17 11:57:45;;;;;;;10.90;1.77;;;27.70;10.20;;;;;;5074705;28;20534;-72
2022/07/17 12:00:14;;;;;;;4.20;1.60;;;28.00;10.50;;;;;;5081324;28;20429;-70
2022/07/17 12:02:41;;;;;;;1.63;1.53;;;28.10;11.20;;;;;;5092773;28;20463;-70
2022/07/17 12:05:10;;;;;;;4.43;1.40;;;28.10;10.10;;;;;;5079324;28;20509;-71
2022/07/17 12:07:42;;;;;;;2.50;1.23;;;28.20;8.70;;;;;;5074471;28;20513;-72
2022/07/17 12:10:14;;;;;;;1.60;1.50;;;28.30;8.80;;;;;;5076639;28;20445;-70
2022/07/17 12:12:51;;;;;;;3.37;1.23;;;28.30;8.80;;;;;;5064231;28;20449;-72
2022/07/17 12:15:19;;;;;;;1.50;1.40;;;28.20;8.70;;;;;;5068507;28;20491;-72
2022/07/17 12:17:45;;;;;;;1.30;1.20;;;28.40;8.80;;;;;;5074293;28;20489;-71
2022/07/17 12:20:24;;;;;;;1.90;1.40;;;28.20;8.80;;;;;;5078552;28;20476;-73
2022/07/17 12:22:51;;;;;;;1.13;1.13;;;28.00;8.70;;;;;;5076829;28;20463;-71
2022/07/17 12:25:31;;;;;;;4.30;1.40;;;27.80;8.50;;;;;;5076309;28;20499;-71
2022/07/17 12:27:57;;;;;;;1.40;1.30;;;28.00;8.70;;;;;;5075596;28;20842;-72
2022/07/17 12:30:28;;;;;;;1.60;1.50;;;28.20;8.80;;;;;;5074233;28;20426;-71
2022/07/17 12:32:55;;;;;;;1.40;1.30;;;28.20;8.70;;;;;;5066821;28;20941;-71
2022/07/17 12:35:26;;;;;;;4.17;1.50;;;28.40;8.80;;;;;;5073476;28;20466;-72
2022/07/17 12:37:52;;;;;;;7.77;1.60;;;28.60;9.00;;;;;;5067075;28;20936;-71
2022/07/17 12:40:19;;;;;;;3.13;1.43;;;28.70;9.00;;;;;;5072861;28;20563;-71
2022/07/17 12:42:46;;;;;;;3.40;1.43;;;28.30;8.80;;;;;;5069664;28;20495;-72
2022/07/17 12:45:13;;;;;;;1.60;1.50;;;28.30;8.80;;;;;;5068249;28;20488;-72
2022/07/17 12:47:40;;;;;;;1.40;1.30;;;28.60;7.60;;;;;;5073926;28;21024;-70
2022/07/17 12:50:09;;;;;;;3.80;1.40;;;28.80;6.40;;;;;;5074828;28;20462;-71
2022/07/17 12:52:37;;;;;;;1.33;1.23;;;28.80;5.70;;;;;;5077088;28;20877;-71